Lecci, France

73.2°F / 22.9°C
Clear
Heat Index: 77°F / 25°C
Humidity: 42%
Dew Point: 49°F / 9°C
Wind: ESE at 0 mph / 0.0 km/h
Wind Gust: 0.0 mph / 0.0 km/h
Pressure: 30.06 in / 1018 hPa (Steady)
Visibility: 6.2 miles / 10.0 kilometers
Clouds:
Yesterday's Maximum: 69.1°F / 20.6°C
Yesterday's Minimum: 54.1°F / 12.3°C
Sunrise:6:26 AM CEST
Sunset:8:14 PM CEST
Moon Rise:2:19 AM CEST
Moon Set:11:56 AM CEST
Moon Phase Waning Gibbous
NOAA Weather Radio
No local feed.
METAR LFKF 261130Z AUTO 25015KT 210V280 9999 // NSC 20/13 Q1018
As of: 1:35 PM CEST on April 26, 2019
Observed at: Vallicone, Ota, France

View Station's History

No Yes

Local Satellite

Current Satellite Forecast
Region Default Local
No Yes

View Full Screen WunderMap

Forecast

Current Satellite Forecast

Features

Weather Apps

WunderRadio

Weather Underground Apps
Check out our wide variety of mobile and setup applications.

Weather Underground Applications

Top of Page

© Copyright 2019
The Weather Company, LLC